Time;durP1;ratioP1;P1;durP2;ratioP2;P2;SDS_P1;SDS_P2;PMS_P1;PMS_P2;Temp;Humidity;BMP_temperature;BMP_pressure;BME280_temperature;BME280_humidity;BME280_pressure;Samples;Min_cycle;Max_cycle;Signal;HPM_P1;HPM_P2
2022/04/07 00:00:22;;;;;;;6.97;3.55;;;;;;;0.77;67.57;98778.56;5029538;28;20029;-60
2022/04/07 00:02:47;;;;;;;4.90;3.40;;;;;;;0.82;67.45;98794.97;5030709;28;20533;-60
2022/04/07 00:05:13;;;;;;;4.95;3.72;;;;;;;0.82;67.23;98792.31;5030093;28;20036;-61
2022/04/07 00:07:39;;;;;;;5.30;3.33;;;;;;;0.84;67.34;98787.81;5030088;28;20125;-63
2022/04/07 00:10:05;;;;;;;6.05;3.55;;;;;;;0.82;67.60;98789.69;5030403;28;20085;-61
2022/04/07 00:12:33;;;;;;;7.22;3.72;;;;;;;0.86;67.24;98799.13;5029557;28;20469;-61
2022/04/07 00:15:00;;;;;;;5.82;3.70;;;;;;;0.90;66.73;98803.28;5029793;28;20040;-63
2022/04/07 00:17:27;;;;;;;5.35;3.38;;;;;;;0.92;66.86;98801.38;5029887;28;20036;-62
2022/04/07 00:19:53;;;;;;;4.47;3.30;;;;;;;0.90;66.72;98795.38;5030699;28;20036;-61
2022/04/07 00:22:18;;;;;;;4.88;3.30;;;;;;;0.83;66.97;98788.75;5030482;28;20037;-61
2022/04/07 00:24:44;;;;;;;5.63;3.42;;;;;;;0.69;66.75;98764.03;5031147;28;20029;-61
2022/04/07 00:27:10;;;;;;;4.60;3.30;;;;;;;0.91;66.69;98794.41;5033648;28;20041;-62
2022/04/07 00:29:35;;;;;;;6.82;3.78;;;;;;;0.93;66.80;98803.09;5034150;28;20049;-62
2022/04/07 00:32:04;;;;;;;5.05;3.45;;;;;;;0.93;66.67;98800.44;5034184;28;20052;-62
2022/04/07 00:34:29;;;;;;;6.90;3.72;;;;;;;0.98;65.63;98792.28;5033769;28;20127;-62
2022/04/07 00:36:55;;;;;;;5.43;3.67;;;;;;;0.87;66.53;98781.53;5032507;28;20477;-62
2022/04/07 00:39:21;;;;;;;5.95;3.70;;;;;;;0.92;66.38;98782.09;5032655;28;20203;-62
2022/04/07 00:41:47;;;;;;;7.13;3.30;;;;;;;0.97;66.57;98802.00;5033817;28;20112;-61
2022/04/07 00:44:12;;;;;;;3.47;3.10;;;;;;;0.96;66.71;98802.91;5033467;28;20025;-60
2022/04/07 00:46:39;;;;;;;5.22;3.13;;;;;;;0.75;66.76;98751.47;5033161;28;20103;-62
2022/04/07 00:49:05;;;;;;;4.72;3.40;;;;;;;0.97;66.73;98799.38;5033829;28;20030;-61
2022/04/07 00:51:33;;;;;;;6.13;3.63;;;;;;;1.02;66.24;98804.34;5032512;28;20339;-60
2022/04/07 00:53:58;;;;;;;5.78;3.63;;;;;;;1.02;66.19;98806.16;5033500;28;20021;-60
2022/04/07 00:56:25;;;;;;;4.82;3.50;;;;;;;1.02;66.52;98801.72;5033405;28;20033;-63
2022/04/07 00:58:51;;;;;;;5.47;3.22;;;;;;;1.01;66.49;98794.75;5033332;28;20029;-63
2022/04/07 01:01:20;;;;;;;5.85;3.60;;;;;;;0.98;66.52;98795.78;5032426;28;20446;-64
2022/04/07 01:03:46;;;;;;;5.30;3.03;;;;;;;0.91;66.56;98773.34;5033054;28;20068;-62
2022/04/07 01:06:12;;;;;;;6.15;3.30;;;;;;;0.89;66.54;98774.38;5032893;28;20025;-60
2022/04/07 01:08:38;;;;;;;5.22;3.28;;;;;;;0.69;66.30;98748.22;5032792;28;20440;-61
2022/04/07 01:11:04;;;;;;;5.43;3.53;;;;;;;0.98;66.60;98781.75;5033188;28;20457;-62
2022/04/07 01:13:46;;;;;;;3.92;3.10;;;;;;;1.01;66.52;98784.19;5033264;28;20065;-61
2022/04/07 01:16:13;;;;;;;4.82;3.20;;;;;;;1.08;66.57;98792.59;5033241;28;20032;-62
2022/04/07 01:18:39;;;;;;;5.40;2.92;;;;;;;1.10;66.35;98790.72;5033180;28;20432;-63
2022/04/07 01:21:06;;;;;;;4.28;2.90;;;;;;;1.12;66.25;98788.84;5032998;28;20026;-61
2022/04/07 01:23:35;;;;;;;5.18;3.17;;;;;;;1.20;66.04;98798.94;5032421;28;20415;-62
2022/04/07 01:26:05;;;;;;;4.28;3.10;;;;;;;1.24;65.96;98798.69;5031937;28;20029;-61
2022/04/07 01:28:31;;;;;;;4.55;3.05;;;;;;;1.07;65.83;98764.56;5032528;28;20033;-61
2022/04/07 01:30:57;;;;;;;6.03;2.88;;;;;;;1.25;65.48;98784.56;5032681;28;20149;-62
2022/04/07 01:33:23;;;;;;;4.70;3.05;;;;;;;1.26;66.01;98791.53;5032957;28;20382;-60
2022/04/07 01:35:50;;;;;;;4.53;2.88;;;;;;;1.20;65.68;98773.41;5031746;28;20070;-62
2022/04/07 01:38:16;;;;;;;5.20;3.00;;;;;;;1.27;65.85;98782.69;5032206;28;20465;-61
2022/04/07 01:40:43;;;;;;;4.28;3.00;;;;;;;1.28;65.42;98781.75;5032978;28;20547;-62
2022/04/07 01:43:11;;;;;;;4.10;2.95;;;;;;;1.07;65.71;98748.72;5032572;28;20128;-63
2022/04/07 01:45:37;;;;;;;3.90;3.10;;;;;;;1.27;65.93;98782.69;5032388;28;20033;-62
2022/04/07 01:48:03;;;;;;;4.32;3.00;;;;;;;1.26;65.75;98783.63;5031278;28;20462;-62
2022/04/07 01:50:31;;;;;;;6.70;3.35;;;;;;;1.29;65.91;98772.03;5033093;28;20034;-62
2022/04/07 01:52:57;;;;;;;5.25;3.55;;;;;;;1.32;65.91;98777.13;5032711;28;20037;-62
2022/04/07 01:55:26;;;;;;;4.55;3.13;;;;;;;1.33;65.86;98777.97;5032398;28;20060;-63
2022/04/07 01:57:52;;;;;;;4.57;2.92;;;;;;;1.33;65.43;98785.91;5031781;28;20037;-62
2022/04/07 02:00:17;;;;;;;5.25;3.00;;;;;;;1.32;65.57;98781.56;5032357;28;20032;-63
2022/04/07 02:02:45;;;;;;;4.15;2.80;;;;;;;1.35;65.98;98790.16;5032259;28;20033;-63
2022/04/07 02:05:11;;;;;;;5.00;3.38;;;;;;;1.38;65.32;98799.66;5032450;28;20036;-62
2022/04/07 02:07:42;;;;;;;6.30;2.95;;;;;;;1.45;65.27;98797.50;5032693;28;20487;-63
2022/04/07 02:10:10;;;;;;;4.35;3.10;;;;;;;1.48;65.02;98790.28;5031956;28;20390;-62
2022/04/07 02:12:39;;;;;;;3.85;2.67;;;;;;;1.50;65.32;98793.66;5031854;28;20033;-62
2022/04/07 02:15:05;;;;;;;4.05;2.85;;;;;;;1.52;64.86;98793.56;5031047;28;20021;-61
2022/04/07 02:17:32;;;;;;;5.07;3.33;;;;;;;1.52;65.08;98781.22;5032533;28;20072;-61
2022/04/07 02:19:59;;;;;;;4.50;2.67;;;;;;;1.58;65.33;98782.66;5032106;28;20037;-62
2022/04/07 02:22:28;;;;;;;4.60;2.50;;;;;;;1.57;64.75;98771.25;5031501;28;20022;-64
2022/04/07 02:24:55;;;;;;;4.80;2.70;;;;;;;1.60;64.81;98772.00;5032078;28;20140;-61
2022/04/07 02:27:20;;;;;;;5.30;2.80;;;;;;;1.56;64.95;98771.31;5032221;28;20033;-64
2022/04/07 02:29:46;;;;;;;6.25;2.95;;;;;;;1.57;64.63;98776.50;5030432;28;20051;-60
2022/04/07 02:32:11;;;;;;;4.22;2.90;;;;;;;1.33;64.23;98730.50;5031252;28;20460;-62
2022/04/07 02:34:40;;;;;;;4.28;3.03;;;;;;;1.54;64.76;98781.13;5031698;28;20124;-62
2022/04/07 02:37:06;;;;;;;6.95;3.10;;;;;;;1.49;64.64;98762.09;5030601;28;20095;-63
2022/04/07 02:39:31;;;;;;;4.43;2.78;;;;;;;1.50;64.71;98769.91;5030376;28;20037;-62
2022/04/07 02:41:57;;;;;;;4.45;2.90;;;;;;;1.57;65.11;98776.50;5031140;28;20440;-63
2022/04/07 02:44:22;;;;;;;7.70;3.10;;;;;;;1.62;64.07;98772.75;5031644;28;20037;-63
2022/04/07 02:46:48;;;;;;;4.38;3.10;;;;;;;1.63;64.84;98779.72;5031699;28;20033;-62
2022/04/07 02:49:13;;;;;;;4.93;3.05;;;;;;;1.61;64.65;98779.81;5030446;28;20496;-62
2022/04/07 02:51:39;;;;;;;5.35;3.45;;;;;;;1.65;64.62;98783.97;5030904;28;20052;-63
2022/04/07 02:54:04;;;;;;;7.28;3.50;;;;;;;1.63;64.86;98774.44;5031283;28;20040;-62
2022/04/07 02:56:30;;;;;;;3.92;3.08;;;;;;;1.73;63.98;98780.88;5031963;28;20464;-62
2022/04/07 02:58:56;;;;;;;3.90;2.85;;;;;;;1.78;64.27;98788.47;5030815;28;20025;-63
2022/04/07 03:01:22;;;;;;;7.88;3.00;;;;;;;1.77;64.37;98786.78;5030750;28;20030;-63
2022/04/07 03:03:55;;;;;;;4.72;3.33;;;;;;;1.77;64.13;98787.66;5030934;28;20044;-63
2022/04/07 03:06:24;;;;;;;5.95;3.30;;;;;;;1.87;63.82;98790.59;5030875;28;20038;-62
2022/04/07 03:08:51;;;;;;;3.90;2.92;;;;;;;1.87;64.39;98790.59;5030839;28;20473;-63
2022/04/07 03:11:17;;;;;;;5.43;3.50;;;;;;;1.93;63.70;98789.34;5030696;28;20033;-62
2022/04/07 03:13:43;;;;;;;5.05;3.30;;;;;;;1.95;64.03;98790.13;5030918;28;20071;-63
2022/04/07 03:16:09;;;;;;;4.97;3.35;;;;;;;2.00;63.72;98788.88;5029469;28;20037;-62
2022/04/07 03:18:35;;;;;;;5.47;3.13;;;;;;;2.12;63.38;98781.97;5030911;28;20030;-61
2022/04/07 03:21:01;;;;;;;5.82;3.15;;;;;;;2.14;63.57;98789.81;5030074;28;20121;-62
2022/04/07 03:23:27;;;;;;;4.55;3.42;;;;;;;2.14;63.83;98769.50;5030339;28;20075;-63
2022/04/07 03:25:53;;;;;;;5.88;3.40;;;;;;;2.21;63.50;98769.16;5030608;28;20526;-62
2022/04/07 03:28:18;;;;;;;5.00;3.40;;;;;;;2.31;63.66;98767.63;5031111;28;20021;-61
2022/04/07 03:30:44;;;;;;;4.10;3.17;;;;;;;2.42;63.36;98773.06;5030343;28;20099;-61
2022/04/07 03:33:10;;;;;;;6.38;3.92;;;;;;;2.49;62.85;98770.88;5029043;28;20080;-61
2022/04/07 03:35:36;;;;;;;5.32;3.65;;;;;;;2.55;62.66;98772.28;5030852;28;20021;-58
2022/04/07 03:38:04;;;;;;;5.80;4.15;;;;;;;2.62;63.13;98773.56;5031102;28;20112;-60
2022/04/07 03:40:29;;;;;;;6.07;3.65;;;;;;;2.71;62.04;98772.97;5030043;28;20037;-60
2022/04/07 03:42:55;;;;;;;4.90;3.67;;;;;;;2.77;62.07;98755.84;5030727;28;20532;-61
2022/04/07 03:45:20;;;;;;;6.30;4.60;;;;;;;2.55;61.77;98714.13;5030861;28;20127;-61
2022/04/07 03:47:46;;;;;;;5.82;4.25;;;;;;;2.84;61.46;98758.94;5030158;28;20025;-61
2022/04/07 03:50:12;;;;;;;8.38;4.10;;;;;;;2.91;61.73;98768.19;5030058;28;20484;-62
2022/04/07 03:52:38;;;;;;;5.80;4.00;;;;;;;2.98;61.16;98772.13;5030707;28;20363;-58
2022/04/07 03:55:05;;;;;;;7.22;3.92;;;;;;;3.00;61.48;98751.69;5031017;28;20036;-62
2022/04/07 03:57:30;;;;;;;7.47;4.18;;;;;;;2.98;61.05;98740.38;5030137;28;20539;-62
2022/04/07 03:59:56;;;;;;;7.53;4.32;;;;;;;2.92;60.78;98717.00;5031936;28;20029;-61
2022/04/07 04:02:22;;;;;;;6.25;4.00;;;;;;;3.22;60.96;98754.69;5034648;28;20057;-61
2022/04/07 04:04:47;;;;;;;6.47;4.22;;;;;;;3.41;60.38;98764.91;5034665;28;20037;-61
2022/04/07 04:07:13;;;;;;;5.82;4.20;;;;;;;3.50;59.89;98766.06;5034199;28;20025;-62
2022/04/07 04:09:38;;;;;;;6.00;4.25;;;;;;;3.56;59.99;98752.41;5034517;28;20539;-58
2022/04/07 04:12:05;;;;;;;8.48;4.57;;;;;;;3.78;59.81;98757.03;5034636;28;20061;-61
2022/04/07 04:14:30;;;;;;;6.70;3.90;;;;;;;3.90;59.35;98750.03;5034440;28;20025;-61
2022/04/07 04:16:56;;;;;;;5.68;4.38;;;;;;;4.03;58.73;98752.66;5034002;28;20480;-61
2022/04/07 04:19:21;;;;;;;7.88;4.82;;;;;;;3.96;59.60;98746.13;5034196;28;20025;-62
2022/04/07 04:21:47;;;;;;;7.63;5.28;;;;;;;3.98;59.15;98758.31;5033497;28;20033;-63
2022/04/07 04:24:13;;;;;;;7.45;4.82;;;;;;;4.02;59.45;98766.88;5034074;28;20033;-61
2022/04/07 04:26:38;;;;;;;7.40;4.40;;;;;;;3.96;59.54;98744.31;5033769;28;20045;-62
2022/04/07 04:29:04;;;;;;;6.57;4.40;;;;;;;3.95;58.83;98760.31;5033826;28;20124;-62
2022/04/07 04:31:29;;;;;;;7.60;4.30;;;;;;;3.77;59.41;98758.00;5033672;28;20054;-60
2022/04/07 04:33:55;;;;;;;9.32;5.30;;;;;;;3.65;59.18;98732.41;5033908;28;20038;-63
2022/04/07 04:36:21;;;;;;;7.20;4.90;;;;;;;3.71;59.48;98756.63;5038590;28;20020;-59
2022/04/07 04:38:48;;;;;;;6.93;5.10;;;;;;;3.80;59.06;98755.13;5035904;28;20037;-62
2022/04/07 04:41:14;;;;;;;6.90;5.03;;;;;;;3.83;59.79;98765.50;5034281;28;20108;-61
2022/04/07 04:43:40;;;;;;;7.97;5.40;;;;;;;3.93;58.96;98755.13;5034029;28;20540;-55
2022/04/07 04:46:07;;;;;;;7.53;5.13;;;;;;;4.08;58.56;98747.88;5033766;28;20033;-65
2022/04/07 04:48:33;;;;;;;8.60;4.82;;;;;;;4.22;57.02;98748.72;5033354;28;20048;-61
2022/04/07 04:50:59;;;;;;;6.53;4.32;;;;;;;4.38;56.60;98744.00;5034242;28;20029;-64
2022/04/07 04:53:24;;;;;;;5.55;4.15;;;;;;;4.47;55.19;98749.59;5044093;28;20079;-60
2022/04/07 04:55:50;;;;;;;6.18;4.22;;;;;;;4.44;54.63;98748.88;5052719;28;20356;-61
2022/04/07 04:58:16;;;;;;;7.32;3.85;;;;;;;4.52;54.59;98755.41;5049657;28;20033;-63
2022/04/07 05:00:42;;;;;;;8.82;4.57;;;;;;;4.64;54.78;98781.03;5047098;28;20094;-58
2022/04/07 05:03:08;;;;;;;8.98;4.57;;;;;;;4.56;53.72;98735.66;5033143;28;20091;-63
2022/04/07 05:05:33;;;;;;;7.38;4.45;;;;;;;4.73;53.65;98779.50;5032987;28;20033;-64
2022/04/07 05:07:59;;;;;;;7.20;4.30;;;;;;;4.61;53.93;98754.75;5033068;28;20032;-63
2022/04/07 05:10:25;;;;;;;6.95;4.18;;;;;;;4.52;54.95;98763.34;5031268;28;20036;-63
2022/04/07 05:12:53;;;;;;;5.05;3.65;;;;;;;4.42;54.36;98766.69;5033353;28;20530;-63
2022/04/07 05:15:19;;;;;;;5.72;3.80;;;;;;;4.16;54.93;98742.91;5051563;28;20442;-64
2022/04/07 05:17:51;;;;;;;5.78;4.13;;;;;;;4.38;56.08;98775.81;5052646;28;20025;-74
2022/04/07 05:20:18;;;;;;;5.28;4.25;;;;;;;4.44;56.38;98782.47;5045571;28;20473;-74
2022/04/07 05:22:43;;;;;;;5.85;3.70;;;;;;;4.49;56.43;98771.53;5043974;28;20132;-64
2022/04/07 05:25:10;;;;;;;4.55;3.80;;;;;;;4.63;54.79;98762.56;5033212;28;20509;-64
2022/04/07 05:27:37;;;;;;;4.95;3.70;;;;;;;4.51;55.18;98753.72;5032061;28;20033;-62
2022/04/07 05:30:08;;;;;;;7.88;3.55;;;;;;;4.56;55.59;98755.06;5031813;28;20469;-63
2022/04/07 05:32:34;;;;;;;6.07;3.95;;;;;;;4.55;56.89;98752.53;5032644;28;20099;-65
2022/04/07 05:35:00;;;;;;;5.43;3.60;;;;;;;4.63;55.13;98741.38;5032428;28;20045;-67
2022/04/07 05:37:26;;;;;;;5.03;3.40;;;;;;;4.55;55.84;98732.19;5032507;28;20068;-62
2022/04/07 05:39:51;;;;;;;5.82;3.42;;;;;;;4.55;55.74;98755.19;5032853;28;20053;-54
2022/04/07 05:42:18;;;;;;;7.80;3.97;;;;;;;4.31;56.57;98721.53;5032148;28;20041;-63
2022/04/07 05:44:43;;;;;;;5.28;3.95;;;;;;;4.37;57.17;98736.16;5032411;28;20047;-60
2022/04/07 05:47:09;;;;;;;7.20;4.00;;;;;;;4.33;56.84;98729.41;5032924;28;20029;-71
2022/04/07 05:49:35;;;;;;;4.72;3.97;;;;;;;4.26;58.85;98739.59;5032221;28;20033;-67
2022/04/07 05:52:03;;;;;;;5.88;4.07;;;;;;;4.19;57.96;98728.56;5032084;28;20037;-75
2022/04/07 05:54:29;;;;;;;5.85;3.80;;;;;;;4.15;59.54;98721.81;5030849;28;20044;-73
2022/04/07 05:56:54;;;;;;;5.88;3.90;;;;;;;4.19;58.64;98725.09;5032754;28;20026;-68
2022/04/07 05:59:20;;;;;;;9.73;4.30;;;;;;;4.26;58.66;98734.28;5032274;28;20521;-69
2022/04/07 06:01:45;;;;;;;8.25;4.03;;;;;;;4.20;58.61;98697.66;5030583;28;20033;-70
2022/04/07 06:04:11;;;;;;;4.03;3.50;;;;;;;4.10;59.25;98711.56;5032565;28;20044;-71
2022/04/07 06:06:37;;;;;;;5.88;3.65;;;;;;;3.93;60.14;98683.63;5038359;28;20055;-73
2022/04/07 06:09:03;;;;;;;6.13;3.30;;;;;;;4.06;60.23;98711.88;5023611;28;20021;-74
2022/04/07 06:11:29;;;;;;;5.25;3.65;;;;;;;3.96;60.11;98678.09;5033687;28;20033;-74
2022/04/07 06:13:54;;;;;;;5.75;3.88;;;;;;;4.07;59.69;98685.28;5032208;28;20040;-74
2022/04/07 06:16:20;;;;;;;6.38;4.25;;;;;;;4.08;60.42;98692.25;5037937;28;20384;-76
2022/04/07 06:18:45;;;;;;;6.55;3.42;;;;;;;3.86;60.24;98642.66;5040697;28;20048;-70
2022/04/07 06:21:11;;;;;;;7.45;4.03;;;;;;;3.97;61.66;98693.03;5032202;28;20034;-76
2022/04/07 06:23:36;;;;;;;4.72;3.17;;;;;;;4.03;61.08;98675.84;5013363;28;20030;-76
2022/04/07 06:26:02;;;;;;;5.80;3.95;;;;;;;4.06;61.31;98690.69;5031043;28;20095;-76
2022/04/07 06:28:28;;;;;;;5.35;4.15;;;;;;;4.02;61.69;98698.00;5014141;28;20034;-76
2022/04/07 06:30:54;;;;;;;7.50;4.20;;;;;;;3.95;61.00;98684.34;5031251;28;20057;-73
2022/04/07 06:33:21;;;;;;;6.22;4.13;;;;;;;3.68;61.57;98664.19;5030466;28;20041;-72
2022/04/07 06:35:49;;;;;;;10.25;4.75;;;;;;;3.71;61.76;98676.38;5032116;28;20091;-71
2022/04/07 06:38:15;;;;;;;11.70;5.25;;;;;;;3.62;61.77;98684.94;5031448;28;20067;-73
2022/04/07 06:40:40;;;;;;;7.78;4.93;;;;;;;3.53;62.53;98684.66;5030176;28;20124;-74
2022/04/07 06:43:06;;;;;;;12.65;5.70;;;;;;;3.57;62.79;98680.00;5014914;28;20848;-73
2022/04/07 06:45:31;;;;;;;11.40;6.05;;;;;;;3.47;62.15;98687.72;5040676;28;20032;-65
2022/04/07 06:47:57;;;;;;;7.40;5.63;;;;;;;3.27;62.68;98642.34;5048169;28;20415;-68
2022/04/07 06:50:26;;;;;;;8.93;5.90;;;;;;;3.53;62.44;98682.00;5049420;28;20091;-65
2022/04/07 06:52:53;;;;;;;7.68;5.55;;;;;;;3.52;62.89;98685.59;5050804;28;20029;-64
2022/04/07 06:55:19;;;;;;;10.98;6.55;;;;;;;3.54;62.66;98674.91;5050818;28;20110;-65
2022/04/07 06:58:01;;;;;;;7.63;5.55;;;;;;;3.55;62.31;98650.97;5033510;28;20474;-66
2022/04/07 07:00:29;;;;;;;7.13;5.50;;;;;;;3.66;61.98;98697.88;5036581;28;20526;-70
2022/04/07 07:02:56;;;;;;;10.73;5.30;;;;;;;3.65;62.50;98663.56;5049935;28;20025;-64
2022/04/07 07:05:34;;;;;;;7.55;5.80;;;;;;;3.59;62.27;98664.84;5050471;28;20025;-67
2022/04/07 07:08:22;;;;;;;9.02;5.88;;;;;;;3.62;62.39;98674.34;5039995;28;20040;-64
2022/04/07 07:10:49;;;;;;;7.63;6.03;;;;;;;3.33;62.56;98621.69;5030840;28;20125;-66
2022/04/07 07:13:16;;;;;;;6.82;5.20;;;;;;;3.63;62.63;98686.66;5031007;28;20508;-69
2022/04/07 07:15:45;;;;;;;8.15;4.93;;;;;;;3.75;61.74;98671.72;5038653;28;20028;-67
2022/04/07 07:18:10;;;;;;;7.88;4.85;;;;;;;3.63;62.20;98690.13;5049808;28;20111;-65
2022/04/07 07:20:36;;;;;;;5.30;3.97;;;;;;;3.71;62.04;98676.38;5033563;28;20025;-68
2022/04/07 07:23:01;;;;;;;5.70;4.25;;;;;;;3.38;62.82;98623.06;5041624;28;20033;-63
2022/04/07 07:25:30;;;;;;;5.30;4.05;;;;;;;3.59;62.06;98670.97;5050827;28;20048;-67
2022/04/07 07:27:57;;;;;;;6.30;3.53;;;;;;;3.61;62.22;98676.16;5051041;28;20033;-65
2022/04/07 07:30:22;;;;;;;5.75;4.03;;;;;;;3.37;62.70;98624.03;5050033;28;20049;-64
2022/04/07 07:32:48;;;;;;;5.05;3.63;;;;;;;3.51;63.23;98654.78;5051033;28;20446;-65
2022/04/07 07:35:17;;;;;;;6.93;4.22;;;;;;;3.24;63.66;98616.09;5050965;28;20124;-67
2022/04/07 07:37:51;;;;;;;5.10;4.03;;;;;;;3.66;63.75;98652.03;5049474;28;20042;-65
2022/04/07 07:40:17;;;;;;;7.10;3.47;;;;;;;3.72;62.39;98646.28;5045042;28;20033;-67
2022/04/07 07:42:43;;;;;;;6.70;3.85;;;;;;;3.76;62.98;98636.34;5040283;28;20032;-64
2022/04/07 07:45:09;;;;;;;4.95;3.65;;;;;;;3.78;63.07;98640.56;5035647;28;20047;-67
2022/04/07 07:47:35;;;;;;;5.10;3.67;;;;;;;3.81;62.67;98639.50;5041863;28;20029;-70
2022/04/07 07:50:05;;;;;;;5.40;3.70;;;;;;;3.87;62.97;98647.84;5032974;28;20061;-64
2022/04/07 07:52:30;;;;;;;5.65;3.33;;;;;;;3.95;63.21;98628.75;5050796;28;20120;-64
2022/04/07 07:54:56;;;;;;;6.88;3.58;;;;;;;4.10;62.30;98634.75;5047893;28;20441;-66
2022/04/07 07:57:22;;;;;;;4.75;3.17;;;;;;;4.06;62.48;98633.25;5049757;28;20089;-65
2022/04/07 07:59:49;;;;;;;5.72;3.35;;;;;;;4.07;62.54;98636.75;5049439;28;20112;-64
2022/04/07 08:02:14;;;;;;;6.22;3.35;;;;;;;4.05;62.55;98634.22;5049997;28;20037;-65
2022/04/07 08:04:40;;;;;;;5.05;3.45;;;;;;;4.08;63.02;98623.41;5050409;28;20036;-70
2022/04/07 08:07:05;;;;;;;6.30;3.60;;;;;;;4.12;62.81;98614.28;5044492;28;20021;-72
2022/04/07 08:09:31;;;;;;;5.10;3.55;;;;;;;4.12;62.71;98614.28;5049055;28;20503;-71
2022/04/07 08:11:56;;;;;;;5.15;3.45;;;;;;;4.30;62.44;98632.41;5049242;28;20392;-70
2022/04/07 08:14:22;;;;;;;6.75;3.72;;;;;;;4.14;63.40;98625.63;5045833;28;20419;-68
2022/04/07 08:16:48;;;;;;;6.38;3.50;;;;;;;4.12;63.24;98626.69;5044342;28;20489;-68
2022/04/07 08:19:14;;;;;;;8.23;3.75;;;;;;;4.13;63.57;98615.13;5048495;28;20473;-67
2022/04/07 08:21:39;;;;;;;6.95;3.53;;;;;;;4.12;63.50;98610.78;5036681;28;20041;-68
2022/04/07 08:24:05;;;;;;;4.90;3.35;;;;;;;4.23;62.89;98610.00;5038006;28;20518;-68
2022/04/07 08:26:31;;;;;;;6.75;3.92;;;;;;;4.13;63.47;98618.63;5043594;28;20033;-68
2022/04/07 08:28:56;;;;;;;7.88;3.97;;;;;;;4.12;63.81;98631.97;5016253;28;20123;-66
2022/04/07 08:31:23;;;;;;;8.05;3.90;;;;;;;4.04;64.15;98595.44;5035441;28;20076;-69
2022/04/07 08:33:48;;;;;;;6.72;3.60;;;;;;;4.15;63.63;98606.13;5050639;28;20116;-69
2022/04/07 08:36:14;;;;;;;8.80;4.13;;;;;;;4.18;64.32;98601.53;5050206;28;20175;-67
2022/04/07 08:38:39;;;;;;;6.15;3.90;;;;;;;4.23;64.51;98588.78;5037853;28;20021;-70
2022/04/07 08:41:09;;;;;;;8.00;3.95;;;;;;;4.39;64.65;98591.13;5028756;28;20044;-66
2022/04/07 08:43:38;;;;;;;6.80;4.45;;;;;;;4.47;63.45;98591.44;5029039;28;20029;-66
2022/04/07 08:46:08;;;;;;;6.60;4.05;;;;;;;4.30;63.56;98553.78;5047577;28;20029;-64
2022/04/07 08:48:36;;;;;;;10.13;4.93;;;;;;;4.52;63.98;98580.47;5049363;28;20021;-65
2022/04/07 08:51:02;;;;;;;8.15;4.57;;;;;;;4.50;63.90;98572.63;5043028;28;20033;-68
2022/04/07 08:53:28;;;;;;;8.45;5.82;;;;;;;4.55;63.62;98567.81;5047627;28;20044;-64
2022/04/07 08:55:54;;;;;;;7.72;5.70;;;;;;;4.22;64.54;98516.44;5034206;28;20078;-63
2022/04/07 08:58:19;;;;;;;11.00;5.80;;;;;;;4.52;64.98;98569.84;5053922;28;20095;-65
2022/04/07 09:00:45;;;;;;;9.55;5.30;;;;;;;4.57;64.50;98562.38;5051118;28;20036;-64
2022/04/07 09:03:11;;;;;;;8.27;5.80;;;;;;;4.62;64.28;98544.34;5041930;28;20420;-68
2022/04/07 09:05:52;;;;;;;10.25;5.43;;;;;;;4.73;63.89;98551.47;5033200;28;20147;-67
2022/04/07 09:08:18;;;;;;;10.90;5.97;;;;;;;4.66;64.30;98550.25;5033428;28;20037;-64
2022/04/07 09:10:53;;;;;;;8.70;5.53;;;;;;;4.74;64.69;98546.03;5033278;28;20453;-65
2022/04/07 09:13:19;;;;;;;9.80;6.45;;;;;;;4.65;64.42;98541.47;5033530;28;20063;-68
2022/04/07 09:15:45;;;;;;;16.00;6.55;;;;;;;4.58;64.88;98529.63;5033252;28;20116;-67
2022/04/07 09:18:10;;;;;;;9.95;5.80;;;;;;;4.64;64.69;98541.56;5035546;28;20153;-66
2022/04/07 09:20:42;;;;;;;10.93;5.53;;;;;;;4.75;64.20;98549.56;5036212;28;20069;-64
2022/04/07 09:23:11;;;;;;;11.07;6.88;;;;;;;4.67;64.79;98544.84;5047044;28;20114;-65
2022/04/07 09:25:44;;;;;;;11.95;7.50;;;;;;;4.65;64.77;98540.59;5043200;28;20029;-64
2022/04/07 09:28:11;;;;;;;10.52;6.22;;;;;;;4.56;65.18;98529.75;5035114;28;20095;-69
2022/04/07 09:30:37;;;;;;;14.32;6.35;;;;;;;4.54;66.44;98538.78;5035426;28;20092;-65
2022/04/07 09:33:03;;;;;;;8.93;6.50;;;;;;;4.58;66.48;98532.28;5043376;28;20128;-68
2022/04/07 09:35:29;;;;;;;10.38;6.80;;;;;;;4.69;65.26;98545.56;5051941;28;20186;-66
2022/04/07 09:38:00;;;;;;;13.95;7.78;;;;;;;4.76;65.60;98529.16;5051538;28;20490;-67
2022/04/07 09:40:26;;;;;;;13.18;7.50;;;;;;;4.82;64.86;98512.78;5032454;28;20033;-68
2022/04/07 09:42:58;;;;;;;15.80;8.35;;;;;;;4.85;65.38;98529.31;5040477;28;20025;-65
2022/04/07 09:45:24;;;;;;;10.35;7.68;;;;;;;4.85;65.50;98512.56;5033002;28;20172;-67
2022/04/07 09:47:50;;;;;;;11.90;7.95;;;;;;;4.92;65.89;98521.72;5009600;28;20115;-66
2022/04/07 09:50:23;;;;;;;14.93;8.80;;;;;;;5.06;65.42;98525.06;5033717;28;20492;-68
2022/04/07 09:52:56;;;;;;;12.10;8.73;;;;;;;5.07;65.43;98517.00;5031107;28;20212;-68
2022/04/07 09:55:25;;;;;;;11.35;8.27;;;;;;;5.09;65.39;98525.69;5037525;28;20025;-67
2022/04/07 09:57:52;;;;;;;14.05;7.97;;;;;;;5.07;64.70;98503.75;5048516;28;20036;-64
2022/04/07 10:00:18;;;;;;;15.23;8.77;;;;;;;5.18;64.95;98508.19;5050822;28;20025;-65
2022/04/07 10:02:45;;;;;;;17.33;8.65;;;;;;;5.18;64.73;98502.91;5050228;28;20033;-66
2022/04/07 10:05:11;;;;;;;18.95;9.38;;;;;;;5.20;65.40;98516.06;5050835;28;20029;-67
2022/04/07 10:07:38;;;;;;;14.88;8.85;;;;;;;5.22;65.40;98508.81;5052363;28;20025;-67
2022/04/07 10:10:04;;;;;;;12.68;8.93;;;;;;;5.36;64.80;98505.06;5051837;28;20120;-68
2022/04/07 10:12:32;;;;;;;13.65;8.93;;;;;;;5.32;65.11;98505.31;5033341;28;20169;-66
2022/04/07 10:14:58;;;;;;;13.20;9.10;;;;;;;5.41;64.91;98501.03;5050236;28;20048;-68
2022/04/07 10:17:24;;;;;;;14.98;9.13;;;;;;;5.50;64.94;98503.94;5045786;28;20033;-65
2022/04/07 10:20:05;;;;;;;15.75;9.55;;;;;;;5.67;64.58;98497.25;5025497;28;20022;-64
2022/04/07 10:22:39;;;;;;;14.38;8.32;;;;;;;5.67;64.30;98486.63;5032770;28;20037;-64
2022/04/07 10:25:06;;;;;;;14.27;9.32;;;;;;;5.67;64.87;98486.63;5037909;28;20112;-64
2022/04/07 10:27:38;;;;;;;17.58;9.93;;;;;;;5.87;63.69;98493.81;5048182;28;20048;-68
2022/04/07 10:30:16;;;;;;;14.13;9.45;;;;;;;5.91;64.29;98497.06;5049755;28;20052;-65
2022/04/07 10:32:49;;;;;;;14.73;10.40;;;;;;;5.92;64.34;98497.88;5049312;28;20045;-64
2022/04/07 10:35:31;;;;;;;14.38;10.45;;;;;;;6.01;64.06;98494.47;5051576;28;20058;-69
2022/04/07 10:37:58;;;;;;;16.58;10.10;;;;;;;5.96;63.61;98486.03;5033980;28;20044;-66
2022/04/07 10:40:51;;;;;;;18.67;10.88;;;;;;;6.20;63.32;98487.63;5047813;28;20025;-64
2022/04/07 10:43:18;;;;;;;15.93;10.43;;;;;;;6.15;64.04;98491.53;5044059;28;20075;-70
2022/04/07 10:45:52;;;;;;;15.80;10.48;;;;;;;6.29;64.49;98487.72;5045398;28;20037;-66
2022/04/07 10:48:32;;;;;;;15.55;10.70;;;;;;;6.50;63.29;98478.03;5036219;28;20041;-65
2022/04/07 10:51:00;;;;;;;18.23;11.10;;;;;;;6.29;63.28;98444.34;5042404;28;20025;-68
2022/04/07 10:53:25;;;;;;;15.63;10.55;;;;;;;6.61;63.03;98478.78;5032865;28;20564;-65
2022/04/07 10:56:00;;;;;;;20.23;10.98;;;;;;;6.79;62.49;98480.84;5047894;28;20147;-69
2022/04/07 10:58:45;;;;;;;19.55;12.00;;;;;;;6.92;62.01;98477.13;5051274;28;20032;-70
2022/04/07 11:01:30;;;;;;;21.17;11.98;;;;;;;6.97;62.23;98474.91;5026142;28;20025;-68
2022/04/07 11:04:20;;;;;;;18.98;10.95;;;;;;;7.06;61.85;98467.94;5012833;28;20049;-66
2022/04/07 11:07:20;;;;;;;16.23;11.40;;;;;;;7.12;62.48;98467.41;5039339;28;20033;-66
2022/04/07 11:09:55;;;;;;;19.15;11.23;;;;;;;7.26;61.76;98451.06;5048690;28;20032;-67
2022/04/07 11:12:25;;;;;;;17.53;11.50;;;;;;;7.45;61.10;98457.38;5050330;28;20036;-68
2022/04/07 11:14:54;;;;;;;18.85;12.00;;;;;;;7.45;60.71;98446.72;5050831;28;20033;-67
2022/04/07 11:17:32;;;;;;;16.48;11.70;;;;;;;7.52;61.04;98436.34;5044397;28;20041;-69
2022/04/07 11:20:18;;;;;;;19.48;12.70;;;;;;;7.71;60.94;98441.72;5042543;28;20128;-68
2022/04/07 11:23:06;;;;;;;19.92;12.43;;;;;;;7.82;60.34;98445.19;5029888;28;20099;-68
2022/04/07 11:25:35;;;;;;;17.75;12.02;;;;;;;7.75;59.72;98427.13;5029260;28;20116;-69
2022/04/07 11:28:22;;;;;;;18.63;12.30;;;;;;;7.77;59.62;98389.69;5030324;28;20082;-68
2022/04/07 11:30:52;;;;;;;18.23;12.57;;;;;;;7.91;60.04;98436.38;5029196;28;20384;-69
2022/04/07 11:33:18;;;;;;;18.67;12.07;;;;;;;7.97;60.03;98440.31;5021196;28;20033;-66
2022/04/07 11:35:56;;;;;;;18.50;12.70;;;;;;;8.20;59.66;98443.50;5030689;28;20022;-66
2022/04/07 11:38:22;;;;;;;18.27;12.23;;;;;;;8.48;58.89;98420.41;5045627;28;20132;-68
2022/04/07 11:40:59;;;;;;;22.13;12.73;;;;;;;8.85;58.47;98429.44;5030353;28;20485;-68